Time;durP1;ratioP1;P1;durP2;ratioP2;P2;SDS_P1;SDS_P2;PMS_P1;PMS_P2;Temp;Humidity;BMP_temperature;BMP_pressure;BME280_temperature;BME280_humidity;BME280_pressure;Samples;Min_cycle;Max_cycle;Signal;HPM_P1;HPM_P2
2023/03/23 00:02:11;;;;;;;0.40;0.40;;;9.90;99.90;;;;;;4943755;28;20077;-82
2023/03/23 00:04:37;;;;;;;0.35;0.35;;;9.90;99.90;;;;;;4948968;28;20086;-82
2023/03/23 00:07:04;;;;;;;0.25;0.25;;;9.90;99.90;;;;;;4957796;28;20062;-83
2023/03/23 00:09:34;;;;;;;0.22;0.22;;;10.00;99.90;;;;;;4926132;28;20101;-81
2023/03/23 00:12:05;;;;;;;0.22;0.22;;;10.00;99.90;;;;;;4943681;28;20145;-82
2023/03/23 00:14:40;;;;;;;0.30;0.30;;;10.10;99.90;;;;;;4939975;28;20035;-82
2023/03/23 00:17:09;;;;;;;0.30;0.30;;;10.10;99.90;;;;;;4945749;28;20448;-81
2023/03/23 00:19:47;;;;;;;0.30;0.30;;;10.10;99.90;;;;;;4940203;28;20138;-82
2023/03/23 00:22:15;;;;;;;0.28;0.28;;;10.10;99.90;;;;;;4952201;28;20062;-83
2023/03/23 00:24:42;;;;;;;0.30;0.30;;;10.00;99.90;;;;;;4976771;28;20082;-82
2023/03/23 00:27:08;;;;;;;0.20;0.20;;;10.00;99.90;;;;;;4947560;28;20050;-84
2023/03/23 00:29:34;;;;;;;0.30;0.30;;;9.90;99.90;;;;;;4965298;28;20066;-83
2023/03/23 00:32:01;;;;;;;0.30;0.30;;;9.90;99.90;;;;;;4979403;28;20086;-82
2023/03/23 00:34:32;;;;;;;0.22;0.22;;;9.80;99.90;;;;;;4943050;28;20039;-83
2023/03/23 00:36:58;;;;;;;0.20;0.20;;;9.80;99.90;;;;;;4964367;28;20112;-83
2023/03/23 00:39:30;;;;;;;0.30;0.30;;;9.90;99.90;;;;;;4968365;28;20510;-83
2023/03/23 00:42:00;;;;;;;0.40;0.40;;;9.90;99.90;;;;;;4959803;28;20046;-83
2023/03/23 00:44:28;;;;;;;0.25;0.25;;;9.90;99.90;;;;;;4949728;28;20050;-82
2023/03/23 00:46:56;;;;;;;0.30;0.30;;;9.90;99.90;;;;;;4967382;28;20095;-82
2023/03/23 00:49:24;;;;;;;0.30;0.30;;;9.90;99.90;;;;;;4965919;28;20261;-82
2023/03/23 00:51:51;;;;;;;0.22;0.22;;;10.00;99.90;;;;;;4945987;28;20081;-82
2023/03/23 00:54:16;;;;;;;0.40;0.40;;;9.90;99.90;;;;;;4964364;28;20492;-82
2023/03/23 00:56:42;;;;;;;0.30;0.30;;;10.00;99.90;;;;;;4963148;28;20090;-82
2023/03/23 00:59:08;;;;;;;0.30;0.30;;;10.00;99.90;;;;;;4942742;28;20445;-83
2023/03/23 01:01:35;;;;;;;0.30;0.30;;;10.10;99.90;;;;;;4932191;28;20046;-84
2023/03/23 01:04:03;;;;;;;0.30;0.30;;;10.10;99.90;;;;;;4947868;28;20046;-82
2023/03/23 01:06:40;;;;;;;0.30;0.30;;;10.10;99.90;;;;;;4966652;28;20397;-81
2023/03/23 01:09:16;;;;;;;0.20;0.20;;;10.20;99.90;;;;;;4951367;28;20035;-84
2023/03/23 01:11:45;;;;;;;0.33;0.33;;;10.20;99.90;;;;;;4950924;28;20395;-82
2023/03/23 01:14:12;;;;;;;0.30;0.30;;;10.20;99.90;;;;;;4964459;28;20298;-82
2023/03/23 01:16:38;;;;;;;0.40;0.40;;;10.20;99.90;;;;;;4958560;28;20439;-84
2023/03/23 01:19:04;;;;;;;0.43;0.43;;;10.20;99.90;;;;;;4964371;28;20487;-81
2023/03/23 01:21:31;;;;;;;0.40;0.40;;;10.20;99.90;;;;;;4971147;28;20047;-82
2023/03/23 01:24:02;;;;;;;0.40;0.40;;;10.10;99.90;;;;;;4954180;28;20080;-84
2023/03/23 01:26:29;;;;;;;0.32;0.32;;;10.10;99.90;;;;;;4980023;28;20047;-82
2023/03/23 01:28:55;;;;;;;0.30;0.30;;;9.90;99.90;;;;;;4981975;28;20049;-81
2023/03/23 01:31:22;;;;;;;;;;;9.90;99.90;;;;;;4971850;28;20173;-84
2023/03/23 01:33:50;;;;;;;;;;;9.90;99.90;;;;;;4963084;28;20024;-83
2023/03/23 01:36:19;;;;;;;0.40;0.40;;;9.80;99.90;;;;;;4963851;28;19924;-84
2023/03/23 01:38:46;;;;;;;0.43;0.43;;;9.80;99.90;;;;;;4950488;28;20042;-85
2023/03/23 01:41:14;;;;;;;0.40;0.40;;;9.80;99.90;;;;;;4948789;28;20047;-83
2023/03/23 01:44:06;;;;;;;0.30;0.30;;;9.80;99.90;;;;;;4962738;28;20058;-85
2023/03/23 01:46:34;;;;;;;0.32;0.32;;;9.80;99.90;;;;;;4956618;28;20043;-85
2023/03/23 01:49:08;;;;;;;0.40;0.40;;;9.90;99.90;;;;;;4968313;28;20050;-84
2023/03/23 01:51:40;;;;;;;0.20;0.20;;;9.90;99.90;;;;;;4968641;28;20073;-84
2023/03/23 01:54:10;;;;;;;0.40;0.40;;;10.00;99.90;;;;;;4970489;28;20043;-85
2023/03/23 01:56:45;;;;;;;0.45;0.45;;;10.10;99.90;;;;;;4972075;28;20400;-84
2023/03/23 01:59:12;;;;;;;0.30;0.30;;;10.10;99.90;;;;;;4948924;28;20545;-87
2023/03/23 02:01:42;;;;;;;0.50;0.50;;;10.10;99.90;;;;;;4967596;28;20116;-83
2023/03/23 02:04:09;;;;;;;0.40;0.40;;;10.20;99.90;;;;;;4966849;28;20042;-86
2023/03/23 02:06:36;;;;;;;0.32;0.32;;;10.20;99.90;;;;;;4966167;28;20057;-84
2023/03/23 02:09:02;;;;;;;0.32;0.32;;;10.30;99.90;;;;;;4963906;28;20043;-84
2023/03/23 02:11:28;;;;;;;0.30;0.30;;;10.30;99.90;;;;;;4967126;28;20070;-84
2023/03/23 02:13:54;;;;;;;0.40;0.40;;;10.40;99.90;;;;;;4969514;28;20070;-86
2023/03/23 02:16:23;;;;;;;0.30;0.30;;;10.40;99.90;;;;;;4949609;28;20092;-86
2023/03/23 02:19:06;;;;;;;0.35;0.35;;;10.40;99.90;;;;;;4966843;28;20050;-87
2023/03/23 02:21:50;;;;;;;0.30;0.30;;;10.40;99.90;;;;;;4948233;28;20058;-87
2023/03/23 02:24:30;;;;;;;0.70;0.70;;;10.50;99.90;;;;;;4962107;28;20062;-85
2023/03/23 02:27:08;;;;;;;0.30;0.30;;;10.50;99.90;;;;;;4958936;28;20106;-85
2023/03/23 02:29:55;;;;;;;0.40;0.40;;;10.50;99.90;;;;;;4966984;28;20055;-86
2023/03/23 02:32:23;;;;;;;;;;;10.60;99.90;;;;;;4946922;28;20039;-84
2023/03/23 02:35:00;;;;;;;0.25;0.25;;;10.70;99.90;;;;;;4962442;28;20055;-87
2023/03/23 02:37:51;;;;;;;0.32;0.32;;;10.70;99.90;;;;;;4960295;28;20096;-87
2023/03/23 02:40:25;;;;;;;0.30;0.30;;;10.70;99.90;;;;;;4962136;28;20066;-87
2023/03/23 02:42:55;;;;;;;0.30;0.30;;;10.70;99.90;;;;;;4964602;28;20038;-86
2023/03/23 02:45:22;;;;;;;0.20;0.20;;;10.70;99.90;;;;;;4963985;28;20046;-85
2023/03/23 02:47:51;;;;;;;0.30;0.30;;;10.70;99.90;;;;;;4962315;28;20046;-84
2023/03/23 02:50:20;;;;;;;0.60;0.60;;;10.60;99.90;;;;;;4964150;28;20034;-89
2023/03/23 02:52:48;;;;;;;0.30;0.30;;;10.60;99.90;;;;;;4965501;28;20395;-85
2023/03/23 02:55:15;;;;;;;0.38;0.38;;;10.60;99.90;;;;;;4968650;28;20043;-84
2023/03/23 02:57:43;;;;;;;0.40;0.40;;;10.60;99.90;;;;;;4950434;28;20392;-87
2023/03/23 03:00:14;;;;;;;0.40;0.40;;;10.70;99.90;;;;;;4951392;28;20051;-85
2023/03/23 03:02:53;;;;;;;0.40;0.40;;;10.70;99.90;;;;;;4964163;28;20409;-86
2023/03/23 03:05:31;;;;;;;0.30;0.30;;;10.70;99.90;;;;;;4948214;28;20099;-84
2023/03/23 03:08:28;;;;;;;0.40;0.40;;;10.70;99.90;;;;;;4960070;28;20043;-87
2023/03/23 03:10:57;;;;;;;0.40;0.40;;;10.70;99.90;;;;;;4951901;28;20517;-86
2023/03/23 03:13:31;;;;;;;0.30;0.30;;;10.70;99.90;;;;;;4964839;28;20812;-85
2023/03/23 03:16:06;;;;;;;0.40;0.40;;;10.70;99.90;;;;;;4941698;28;20047;-88
2023/03/23 03:19:13;;;;;;;0.47;0.47;;;10.70;99.90;;;;;;4966844;28;20043;-86
2023/03/23 03:21:44;;;;;;;0.40;0.40;;;10.70;99.90;;;;;;4961766;28;20078;-85
2023/03/23 03:24:13;;;;;;;0.40;0.40;;;10.70;99.90;;;;;;4967614;28;20108;-85
2023/03/23 03:26:45;;;;;;;0.30;0.30;;;10.70;99.90;;;;;;4936295;28;20055;-87
2023/03/23 03:29:11;;;;;;;0.30;0.30;;;10.70;99.90;;;;;;4950260;28;20047;-87
2023/03/23 03:31:40;;;;;;;0.40;0.40;;;10.70;99.90;;;;;;4965976;28;20050;-87
2023/03/23 03:34:06;;;;;;;0.30;0.30;;;10.70;99.90;;;;;;4973537;28;20039;-88
2023/03/23 03:36:34;;;;;;;0.30;0.30;;;10.70;99.90;;;;;;4969002;28;20066;-86
2023/03/23 03:39:07;;;;;;;0.40;0.40;;;10.70;99.90;;;;;;4941573;28;20051;-85
2023/03/23 03:41:37;;;;;;;0.38;0.38;;;10.80;99.90;;;;;;4953692;28;20165;-86
2023/03/23 03:44:05;;;;;;;0.30;0.30;;;10.80;99.90;;;;;;4960219;28;20079;-88
2023/03/23 03:46:31;;;;;;;0.30;0.30;;;10.80;99.90;;;;;;4948923;28;20050;-88
2023/03/23 03:48:57;;;;;;;0.30;0.30;;;10.80;99.90;;;;;;4967306;28;20047;-86
2023/03/23 03:51:24;;;;;;;0.30;0.30;;;10.80;99.90;;;;;;4972770;28;20062;-84
2023/03/23 03:53:51;;;;;;;0.30;0.30;;;10.80;99.90;;;;;;4978324;28;20073;-86
2023/03/23 03:56:17;;;;;;;2.05;0.38;;;10.80;99.90;;;;;;4958571;28;20038;-86
2023/03/23 03:58:42;;;;;;;0.30;0.30;;;10.80;99.90;;;;;;4952526;28;20126;-87
2023/03/23 04:01:13;;;;;;;0.40;0.40;;;10.70;99.90;;;;;;4954610;28;20503;-85
2023/03/23 04:03:39;;;;;;;0.30;0.30;;;10.70;99.90;;;;;;4989052;28;20092;-84
2023/03/23 04:06:06;;;;;;;0.30;0.30;;;10.60;99.90;;;;;;4952619;28;20051;-83
2023/03/23 04:08:32;;;;;;;0.40;0.40;;;10.50;99.90;;;;;;4968198;28;20525;-85
2023/03/23 04:10:58;;;;;;;0.40;0.40;;;10.40;99.90;;;;;;4945292;28;20115;-82
2023/03/23 04:13:23;;;;;;;0.30;0.30;;;10.30;99.90;;;;;;4966960;28;20050;-85
2023/03/23 04:15:51;;;;;;;0.30;0.30;;;10.30;99.90;;;;;;4934201;28;20096;-84
2023/03/23 04:18:17;;;;;;;0.30;0.30;;;10.20;99.90;;;;;;4948576;28;20031;-83
2023/03/23 04:20:48;;;;;;;0.40;0.40;;;10.20;99.90;;;;;;4931449;28;20146;-83
2023/03/23 04:23:19;;;;;;;0.40;0.40;;;10.10;99.90;;;;;;4962225;28;20562;-84
2023/03/23 04:25:46;;;;;;;0.30;0.30;;;10.00;99.90;;;;;;4937037;28;20428;-83
2023/03/23 04:28:13;;;;;;;0.60;0.60;;;10.00;99.90;;;;;;4948831;28;20330;-83
2023/03/23 04:30:38;;;;;;;;;;;9.90;99.90;;;;;;4947802;28;20146;-83
2023/03/23 04:33:04;;;;;;;0.50;0.50;;;9.80;99.90;;;;;;4945183;28;20056;-82
2023/03/23 04:35:30;;;;;;;;;;;9.80;99.90;;;;;;4948690;28;20096;-84
2023/03/23 04:37:57;;;;;;;0.43;0.43;;;9.80;99.90;;;;;;4965806;28;20333;-83
2023/03/23 04:40:24;;;;;;;0.30;0.30;;;9.80;99.90;;;;;;4946863;28;20130;-85
2023/03/23 04:42:51;;;;;;;0.30;0.30;;;9.80;99.90;;;;;;4963880;28;20063;-84
2023/03/23 04:45:24;;;;;;;0.40;0.40;;;9.70;99.90;;;;;;4945061;28;20046;-83
2023/03/23 04:47:57;;;;;;;0.30;0.30;;;9.60;99.90;;;;;;4964395;28;20049;-83
2023/03/23 04:50:24;;;;;;;0.40;0.40;;;9.60;99.90;;;;;;4933889;28;20054;-84
2023/03/23 04:52:51;;;;;;;0.32;0.32;;;9.60;99.90;;;;;;4961352;28;20160;-85
2023/03/23 04:55:19;;;;;;;0.50;0.50;;;9.70;99.90;;;;;;4962917;28;20111;-84
2023/03/23 04:57:45;;;;;;;0.35;0.35;;;9.70;99.90;;;;;;4960811;28;20057;-84
2023/03/23 05:00:14;;;;;;;0.50;0.50;;;9.60;99.90;;;;;;4964855;28;20292;-84
2023/03/23 05:02:41;;;;;;;0.40;0.40;;;9.60;99.90;;;;;;4963291;28;20138;-82
2023/03/23 05:05:08;;;;;;;0.30;0.30;;;9.60;99.90;;;;;;4969088;28;20047;-83
2023/03/23 05:07:34;;;;;;;0.40;0.40;;;9.60;99.90;;;;;;4961687;28;20131;-84
2023/03/23 05:10:00;;;;;;;0.40;0.40;;;9.50;99.90;;;;;;4979693;28;20122;-83
2023/03/23 05:12:26;;;;;;;0.30;0.30;;;9.60;99.90;;;;;;4948207;28;20644;-83
2023/03/23 05:14:52;;;;;;;0.22;0.22;;;9.60;99.90;;;;;;4962675;28;20051;-84
2023/03/23 05:17:18;;;;;;;0.30;0.30;;;9.60;99.90;;;;;;4965517;28;20450;-83
2023/03/23 05:19:47;;;;;;;0.30;0.30;;;9.70;99.90;;;;;;4948145;28;20054;-83
2023/03/23 05:22:14;;;;;;;0.38;0.38;;;9.70;99.90;;;;;;4964860;28;20061;-87
2023/03/23 05:24:40;;;;;;;0.43;0.43;;;9.70;99.90;;;;;;4961838;28;20096;-85
2023/03/23 05:27:07;;;;;;;0.40;0.40;;;9.70;99.90;;;;;;4959975;28;20434;-85
2023/03/23 05:29:35;;;;;;;0.40;0.40;;;9.70;99.90;;;;;;4972377;28;20053;-87
2023/03/23 05:32:03;;;;;;;0.40;0.40;;;9.90;99.90;;;;;;4950670;28;20467;-85
2023/03/23 05:34:32;;;;;;;0.40;0.40;;;9.90;99.90;;;;;;4944706;28;20050;-85
2023/03/23 05:37:01;;;;;;;0.55;0.55;;;10.00;99.90;;;;;;5022377;28;20046;-85
2023/03/23 05:39:32;;;;;;;0.30;0.30;;;10.00;99.90;;;;;;4945215;28;20047;-86
2023/03/23 05:41:58;;;;;;;0.30;0.30;;;10.10;99.90;;;;;;5031802;28;20361;-86
2023/03/23 05:44:24;;;;;;;0.47;0.47;;;10.10;99.90;;;;;;4957865;28;20134;-84
2023/03/23 05:46:50;;;;;;;0.38;0.38;;;10.10;99.90;;;;;;4965435;28;20137;-84
2023/03/23 05:49:16;;;;;;;0.82;0.82;;;10.10;99.90;;;;;;4961259;28;20447;-86
2023/03/23 05:51:44;;;;;;;0.35;0.35;;;10.10;99.90;;;;;;4964013;28;20035;-87
2023/03/23 05:54:10;;;;;;;0.40;0.40;;;10.10;99.90;;;;;;4936033;28;20077;-86
2023/03/23 05:56:36;;;;;;;0.30;0.30;;;10.10;99.90;;;;;;4965169;28;20043;-85
2023/03/23 05:59:02;;;;;;;;;;;10.10;99.90;;;;;;4954681;28;20039;-86
2023/03/23 06:01:28;;;;;;;0.38;0.38;;;10.10;99.90;;;;;;4960889;28;19961;-87
2023/03/23 06:03:58;;;;;;;0.32;0.32;;;10.10;99.90;;;;;;4946473;28;20085;-85
2023/03/23 06:06:29;;;;;;;0.70;0.70;;;10.10;99.90;;;;;;4963240;28;20415;-86
2023/03/23 06:08:56;;;;;;;0.50;0.50;;;10.10;99.90;;;;;;4945391;28;20531;-86
2023/03/23 06:11:23;;;;;;;0.30;0.30;;;10.10;99.90;;;;;;4943282;28;20046;-84
2023/03/23 06:13:48;;;;;;;0.22;0.22;;;10.10;99.90;;;;;;4941844;28;20053;-87
2023/03/23 06:16:15;;;;;;;0.30;0.30;;;10.10;99.90;;;;;;4963570;28;20043;-85
2023/03/23 06:18:42;;;;;;;0.20;0.20;;;10.10;99.90;;;;;;4962326;28;20126;-87
2023/03/23 06:21:08;;;;;;;0.40;0.40;;;10.10;99.90;;;;;;4960329;28;20058;-86
2023/03/23 06:23:34;;;;;;;0.30;0.30;;;10.10;99.90;;;;;;4960908;28;20061;-85
2023/03/23 06:26:05;;;;;;;0.40;0.40;;;10.20;99.90;;;;;;4964892;28;20404;-86
2023/03/23 06:28:31;;;;;;;0.30;0.30;;;10.20;99.90;;;;;;4965003;28;20551;-86
2023/03/23 06:31:00;;;;;;;0.30;0.30;;;10.30;99.90;;;;;;4961349;28;20515;-87
2023/03/23 06:33:25;;;;;;;0.40;0.40;;;10.30;99.90;;;;;;4932825;28;20043;-87
2023/03/23 06:35:51;;;;;;;0.40;0.40;;;10.30;99.90;;;;;;4962752;28;20043;-86
2023/03/23 06:38:17;;;;;;;0.52;0.52;;;10.30;99.90;;;;;;4979492;28;20073;-86
2023/03/23 06:40:46;;;;;;;0.75;0.75;;;10.30;99.90;;;;;;4966209;28;20047;-86
2023/03/23 06:43:13;;;;;;;0.52;0.52;;;10.40;99.90;;;;;;4969643;28;20046;-87
2023/03/23 06:45:40;;;;;;;0.63;0.52;;;10.40;99.90;;;;;;4978882;28;20081;-87
2023/03/23 06:48:06;;;;;;;0.55;0.55;;;10.30;99.90;;;;;;4979786;28;20053;-85
2023/03/23 06:50:32;;;;;;;1.75;1.63;;;10.20;99.90;;;;;;4965048;28;20665;-85
2023/03/23 06:52:58;;;;;;;0.73;0.73;;;10.10;99.90;;;;;;4956613;28;20110;-85
2023/03/23 06:55:25;;;;;;;0.30;0.30;;;10.00;99.90;;;;;;4964401;28;20062;-85
2023/03/23 06:57:51;;;;;;;0.32;0.32;;;9.90;99.90;;;;;;5030426;28;20097;-87
2023/03/23 07:00:17;;;;;;;0.50;0.50;;;9.80;99.90;;;;;;4960298;28;20131;-86
2023/03/23 07:02:44;;;;;;;0.30;0.30;;;9.70;99.90;;;;;;4950341;28;20050;-85
2023/03/23 07:05:10;;;;;;;0.40;0.40;;;9.60;99.90;;;;;;4952913;28;20050;-86
2023/03/23 07:07:40;;;;;;;0.43;0.43;;;9.70;99.90;;;;;;4970826;28;20488;-85
2023/03/23 07:10:08;;;;;;;0.32;0.32;;;9.60;99.90;;;;;;4937755;28;20071;-87
2023/03/23 07:12:35;;;;;;;0.40;0.40;;;9.70;99.90;;;;;;4948343;28;20112;-87
2023/03/23 07:15:02;;;;;;;0.50;0.50;;;9.70;99.90;;;;;;4967211;28;20514;-86
2023/03/23 07:17:28;;;;;;;0.30;0.30;;;9.70;99.90;;;;;;4966639;28;20054;-85
2023/03/23 07:19:54;;;;;;;0.30;0.30;;;9.80;99.90;;;;;;4960812;28;20050;-86
2023/03/23 07:22:20;;;;;;;0.40;0.40;;;9.90;99.90;;;;;;4964370;28;20062;-88
2023/03/23 07:24:46;;;;;;;0.40;0.40;;;9.90;99.90;;;;;;4971482;28;20421;-86
2023/03/23 07:27:11;;;;;;;0.60;0.60;;;9.90;99.90;;;;;;4964510;28;20035;-85
2023/03/23 07:29:38;;;;;;;1.48;1.38;;;9.90;99.90;;;;;;4960711;28;20061;-86
2023/03/23 07:32:05;;;;;;;0.47;0.47;;;9.90;99.90;;;;;;4965688;28;20176;-85
2023/03/23 07:34:31;;;;;;;0.57;0.57;;;9.80;99.90;;;;;;4991303;28;20099;-88
2023/03/23 07:36:57;;;;;;;0.30;0.30;;;9.80;99.90;;;;;;4967409;28;20047;-86
2023/03/23 07:39:23;;;;;;;;;;;9.80;99.90;;;;;;4964041;28;20137;-86
2023/03/23 07:41:50;;;;;;;0.40;0.40;;;9.90;99.90;;;;;;4948752;28;19929;-87
2023/03/23 07:44:16;;;;;;;3.30;2.45;;;10.00;99.90;;;;;;4961759;28;20134;-85
2023/03/23 07:46:42;;;;;;;;;;;10.10;99.90;;;;;;4962477;28;20046;-84
2023/03/23 07:49:08;;;;;;;0.40;0.40;;;10.30;99.90;;;;;;4958686;28;20310;-86
2023/03/23 07:51:34;;;;;;;0.70;0.70;;;10.40;99.90;;;;;;4949973;28;20088;-88
2023/03/23 07:54:02;;;;;;;0.43;0.43;;;10.50;99.90;;;;;;5034854;28;20031;-85
2023/03/23 07:56:28;;;;;;;0.40;0.40;;;10.50;99.90;;;;;;4963155;28;20046;-86
2023/03/23 07:58:54;;;;;;;0.50;0.50;;;10.50;99.90;;;;;;4978081;28;20451;-86
2023/03/23 08:01:21;;;;;;;0.70;0.70;;;10.60;99.90;;;;;;4988666;28;20046;-86
2023/03/23 08:03:46;;;;;;;;;;;10.60;99.90;;;;;;4949672;28;20737;-87
2023/03/23 08:06:12;;;;;;;0.50;0.50;;;10.70;99.90;;;;;;4975230;28;19928;-87
2023/03/23 08:08:40;;;;;;;0.40;0.40;;;10.70;99.90;;;;;;4966543;28;20059;-85
2023/03/23 08:11:06;;;;;;;0.80;0.57;;;10.70;99.90;;;;;;4967468;28;20455;-84
2023/03/23 08:13:33;;;;;;;0.93;0.85;;;10.70;99.90;;;;;;4969089;28;20047;-85
2023/03/23 08:16:03;;;;;;;0.30;0.30;;;10.70;99.90;;;;;;4948469;28;20038;-84
2023/03/23 08:18:29;;;;;;;0.60;0.60;;;10.70;99.90;;;;;;4971058;28;20050;-83
2023/03/23 08:20:55;;;;;;;0.60;0.60;;;10.70;99.90;;;;;;4963127;28;20057;-83
2023/03/23 08:23:21;;;;;;;0.20;0.20;;;10.80;99.90;;;;;;4950540;28;20046;-84
2023/03/23 08:25:48;;;;;;;0.85;0.85;;;10.80;99.90;;;;;;5030152;28;20058;-82
2023/03/23 08:28:14;;;;;;;0.80;0.80;;;10.90;99.90;;;;;;4959991;28;20138;-84
2023/03/23 08:30:41;;;;;;;0.75;0.75;;;11.00;99.90;;;;;;4960118;28;20154;-82
2023/03/23 08:33:10;;;;;;;0.50;0.50;;;11.00;99.90;;;;;;4961202;28;20480;-84
2023/03/23 08:35:36;;;;;;;0.95;0.95;;;11.00;99.90;;;;;;4945294;28;20055;-83
2023/03/23 08:38:03;;;;;;;0.47;0.47;;;10.90;99.90;;;;;;4962267;28;20061;-83
2023/03/23 08:40:28;;;;;;;0.35;0.35;;;11.00;99.90;;;;;;4964756;28;20039;-83
2023/03/23 08:42:55;;;;;;;0.38;0.38;;;10.90;99.90;;;;;;4947226;28;20077;-84
2023/03/23 08:45:23;;;;;;;0.50;0.50;;;11.00;99.90;;;;;;4962653;28;20062;-83
2023/03/23 08:47:51;;;;;;;0.45;0.45;;;11.10;99.90;;;;;;4963391;28;20043;-83
2023/03/23 08:50:22;;;;;;;0.35;0.35;;;11.20;99.90;;;;;;4961969;28;20038;-83
2023/03/23 08:52:54;;;;;;;0.38;0.38;;;11.30;99.90;;;;;;4961630;28;20039;-83
2023/03/23 08:55:21;;;;;;;0.30;0.30;;;11.20;99.90;;;;;;5033202;28;20043;-84
2023/03/23 08:57:47;;;;;;;0.40;0.40;;;11.20;99.90;;;;;;4968413;28;20066;-83
2023/03/23 09:00:19;;;;;;;0.43;0.43;;;11.30;99.90;;;;;;4963995;28;20430;-84
2023/03/23 09:02:49;;;;;;;0.30;0.30;;;11.40;99.90;;;;;;4964317;28;20178;-84
2023/03/23 09:05:17;;;;;;;4.57;2.65;;;11.50;99.90;;;;;;4960528;28;20074;-82
2023/03/23 09:07:45;;;;;;;0.50;0.50;;;11.50;99.90;;;;;;4962488;28;20125;-84
2023/03/23 09:10:13;;;;;;;0.60;0.60;;;11.50;99.90;;;;;;4962263;28;20043;-84
2023/03/23 09:12:39;;;;;;;0.30;0.30;;;11.50;99.90;;;;;;4966554;28;20121;-83
2023/03/23 09:15:08;;;;;;;0.30;0.30;;;11.50;99.90;;;;;;4962478;28;20123;-83
2023/03/23 09:17:36;;;;;;;0.63;0.63;;;11.60;99.90;;;;;;4959915;28;20089;-82
2023/03/23 09:20:04;;;;;;;0.40;0.40;;;11.70;99.90;;;;;;4970958;28;20439;-84
2023/03/23 09:22:34;;;;;;;0.35;0.35;;;11.70;99.90;;;;;;4968140;28;20088;-85
2023/03/23 09:25:00;;;;;;;0.43;0.43;;;11.80;99.90;;;;;;4972177;28;21203;-82
2023/03/23 09:27:25;;;;;;;0.63;0.63;;;11.80;99.90;;;;;;4967526;28;20075;-84
2023/03/23 09:29:51;;;;;;;0.40;0.40;;;11.90;99.90;;;;;;4948689;28;20043;-83
2023/03/23 09:32:17;;;;;;;0.70;0.70;;;11.90;99.90;;;;;;4958805;28;20074;-85
2023/03/23 09:34:43;;;;;;;0.20;0.20;;;12.00;99.90;;;;;;4959575;28;20047;-83
2023/03/23 09:37:09;;;;;;;1.60;1.50;;;12.00;99.90;;;;;;4966427;28;20133;-84
2023/03/23 09:39:34;;;;;;;0.70;0.57;;;12.00;99.90;;;;;;4964153;28;20121;-84
2023/03/23 09:42:19;;;;;;;3.58;1.13;;;11.80;99.90;;;;;;4961192;28;20046;-84
2023/03/23 09:45:10;;;;;;;0.50;0.50;;;11.70;99.90;;;;;;4957182;28;20047;-83
2023/03/23 09:47:36;;;;;;;2.10;2.00;;;11.60;99.90;;;;;;4964146;28;20054;-82
2023/03/23 09:50:16;;;;;;;0.30;0.30;;;11.50;99.90;;;;;;4945593;28;20487;-84
2023/03/23 09:53:21;;;;;;;0.82;0.82;;;11.50;99.90;;;;;;4964772;28;20053;-83
2023/03/23 09:55:48;;;;;;;0.20;0.20;;;11.40;99.90;;;;;;4961701;28;20046;-83
2023/03/23 09:58:26;;;;;;;0.25;0.25;;;11.50;99.90;;;;;;4947240;28;20137;-83
2023/03/23 10:01:02;;;;;;;0.47;0.47;;;11.70;99.90;;;;;;4963901;28;20043;-83
2023/03/23 10:03:38;;;;;;;0.45;0.45;;;11.80;99.90;;;;;;4963808;28;20059;-83
2023/03/23 10:06:07;;;;;;;1.30;1.30;;;12.00;99.90;;;;;;4945687;28;20082;-85
2023/03/23 10:08:34;;;;;;;0.30;0.30;;;12.20;99.90;;;;;;4965218;28;20553;-84
2023/03/23 10:11:35;;;;;;;1.58;1.48;;;12.50;99.90;;;;;;4977250;28;20436;-83
2023/03/23 10:14:39;;;;;;;1.15;1.15;;;12.60;99.90;;;;;;4982678;28;20059;-82
2023/03/23 10:17:17;;;;;;;0.43;0.43;;;12.90;99.90;;;;;;4974529;28;20059;-84
2023/03/23 10:19:58;;;;;;;1.45;0.63;;;13.00;99.90;;;;;;4957061;28;20510;-82
2023/03/23 10:22:32;;;;;;;0.40;0.40;;;13.10;99.90;;;;;;4965305;28;20062;-83
2023/03/23 10:25:18;;;;;;;0.70;0.70;;;13.10;99.90;;;;;;4949728;28;20058;-85
2023/03/23 10:28:04;;;;;;;0.30;0.30;;;13.20;99.90;;;;;;4954265;28;20084;-83
2023/03/23 10:30:32;;;;;;;0.75;0.75;;;13.20;99.90;;;;;;4933694;28;20763;-86
2023/03/23 10:33:08;;;;;;;0.63;0.63;;;13.20;99.90;;;;;;4945208;28;20593;-83
2023/03/23 10:35:46;;;;;;;0.28;0.28;;;13.20;99.90;;;;;;4931767;28;20043;-83
2023/03/23 10:38:26;;;;;;;1.45;0.50;;;13.10;99.90;;;;;;4934782;28;20376;-81
2023/03/23 10:41:05;;;;;;;1.38;1.30;;;13.10;99.90;;;;;;4942336;28;20079;-83
2023/03/23 10:43:31;;;;;;;0.20;0.20;;;12.90;99.90;;;;;;4929636;28;20062;-85
2023/03/23 10:46:02;;;;;;;3.20;0.50;;;12.80;99.90;;;;;;4945884;28;20129;-85
2023/03/23 10:48:36;;;;;;;2.13;1.85;;;12.80;99.90;;;;;;4954270;28;20066;-84
2023/03/23 10:51:06;;;;;;;0.30;0.30;;;12.70;99.90;;;;;;4950838;28;20047;-85
2023/03/23 10:53:43;;;;;;;0.68;0.68;;;12.50;99.90;;;;;;4944876;28;20665;-83
2023/03/23 10:56:35;;;;;;;0.30;0.30;;;12.40;99.90;;;;;;4961075;28;20034;-83
2023/03/23 10:59:15;;;;;;;1.90;1.77;;;12.40;99.90;;;;;;4962704;28;20054;-83
2023/03/23 11:01:45;;;;;;;0.20;0.20;;;12.60;99.90;;;;;;4961682;28;20043;-83
2023/03/23 11:04:17;;;;;;;0.52;0.52;;;12.60;99.90;;;;;;4961959;28;20070;-83
2023/03/23 11:06:50;;;;;;;0.50;0.50;;;12.60;99.90;;;;;;4961811;28;20443;-83
2023/03/23 11:09:19;;;;;;;2.45;0.70;;;12.60;99.90;;;;;;4962702;28;20049;-82
2023/03/23 11:11:55;;;;;;;1.83;1.15;;;12.60;99.90;;;;;;4982896;28;20038;-84
2023/03/23 11:14:39;;;;;;;0.50;0.50;;;12.70;99.90;;;;;;4961997;28;20042;-84
2023/03/23 11:17:19;;;;;;;0.40;0.40;;;12.60;99.90;;;;;;4964601;28;20058;-82
2023/03/23 11:19:45;;;;;;;0.22;0.22;;;12.50;99.90;;;;;;4979814;28;20123;-82
2023/03/23 11:22:28;;;;;;;3.40;3.10;;;12.50;99.90;;;;;;4965483;28;20047;-82
2023/03/23 11:24:56;;;;;;;2.97;0.70;;;12.60;99.90;;;;;;4939192;28;20127;-83
2023/03/23 11:27:23;;;;;;;0.43;0.40;;;12.70;99.90;;;;;;4958497;28;20124;-84
2023/03/23 11:29:56;;;;;;;0.75;0.75;;;12.80;99.90;;;;;;4958379;28;20039;-83
2023/03/23 11:32:27;;;;;;;0.52;0.52;;;12.90;99.90;;;;;;4973203;28;20037;-83
2023/03/23 11:35:08;;;;;;;0.30;0.30;;;13.10;99.90;;;;;;4948595;28;20112;-84
2023/03/23 11:37:52;;;;;;;0.40;0.40;;;13.30;99.90;;;;;;4961472;28;20496;-84
2023/03/23 11:40:21;;;;;;;0.75;0.30;;;13.30;99.90;;;;;;4963534;28;20081;-85
2023/03/23 11:42:53;;;;;;;0.38;0.38;;;13.40;99.90;;;;;;4963043;28;20042;-83
2023/03/23 11:45:19;;;;;;;0.30;0.30;;;13.50;99.90;;;;;;4950644;28;20472;-86
2023/03/23 11:48:20;;;;;;;2.38;1.38;;;13.60;99.90;;;;;;4961918;28;20043;-85
2023/03/23 11:50:54;;;;;;;0.35;0.35;;;13.60;99.90;;;;;;4967521;28;20047;-85
2023/03/23 11:53:25;;;;;;;2.30;0.40;;;13.80;99.90;;;;;;4963782;28;20598;-84
2023/03/23 11:55:57;;;;;;;0.65;0.47;;;13.90;99.90;;;;;;4960595;28;20096;-85
2023/03/23 11:58:23;;;;;;;0.20;0.20;;;14.10;99.90;;;;;;4957562;28;20047;-82
2023/03/23 12:00:58;;;;;;;2.20;1.20;;;14.00;99.90;;;;;;4977219;28;20050;-86
2023/03/23 12:03:52;;;;;;;1.08;1.05;;;13.90;99.90;;;;;;4964640;28;20047;-82
2023/03/23 12:06:46;;;;;;;0.52;0.52;;;14.00;99.90;;;;;;4967867;28;20049;-85
2023/03/23 12:09:24;;;;;;;1.55;1.45;;;14.40;99.90;;;;;;4962674;28;20039;-85
2023/03/23 12:12:02;;;;;;;1.05;1.05;;;14.60;99.90;;;;;;4966716;28;20099;-84
2023/03/23 12:14:34;;;;;;;0.30;0.30;;;14.90;99.90;;;;;;4966515;28;20036;-86
2023/03/23 12:17:17;;;;;;;0.85;0.85;;;15.20;99.90;;;;;;4976532;28;20055;-83
2023/03/23 12:20:00;;;;;;;0.30;0.30;;;15.30;99.90;;;;;;4985552;28;20104;-81
2023/03/23 12:22:53;;;;;;;0.43;0.43;;;15.50;99.90;;;;;;4977871;28;20397;-83
2023/03/23 12:25:47;;;;;;;0.30;0.30;;;15.30;99.90;;;;;;4964847;28;20101;-86
2023/03/23 12:28:43;;;;;;;0.70;0.70;;;15.30;99.90;;;;;;4966949;28;20144;-84
2023/03/23 12:31:36;;;;;;;0.30;0.30;;;15.30;99.90;;;;;;4970239;28;20042;-86
2023/03/23 12:34:11;;;;;;;0.25;0.25;;;15.40;99.90;;;;;;4980264;28;20425;-83
2023/03/23 12:37:15;;;;;;;0.40;0.40;;;15.50;99.90;;;;;;4963637;28;20059;-84
2023/03/23 12:39:40;;;;;;;0.30;0.30;;;15.40;99.90;;;;;;4965366;28;20046;-81
2023/03/23 12:42:25;;;;;;;0.30;0.30;;;15.30;99.90;;;;;;4962553;28;20054;-86
2023/03/23 12:45:18;;;;;;;0.25;0.25;;;15.20;99.90;;;;;;4967753;28;20424;-87
2023/03/23 12:48:01;;;;;;;3.72;0.57;;;14.80;99.90;;;;;;4958759;28;20146;-83
2023/03/23 12:50:33;;;;;;;1.20;1.10;;;14.70;99.90;;;;;;4951581;28;20125;-84
2023/03/23 12:53:24;;;;;;;0.55;0.55;;;14.70;99.90;;;;;;4970423;28;20046;-87
2023/03/23 12:56:32;;;;;;;0.35;0.35;;;14.70;99.90;;;;;;4950957;28;20761;-83
2023/03/23 12:59:17;;;;;;;0.30;0.30;;;14.70;99.90;;;;;;4903195;29;20075;-84
2023/03/23 13:01:48;;;;;;;1.45;1.35;;;14.60;99.90;;;;;;4918747;28;20489;-85
2023/03/23 13:04:20;;;;;;;0.50;0.50;;;14.50;99.90;;;;;;4945236;28;20407;-84
2023/03/23 13:06:48;;;;;;;0.30;0.30;;;14.30;99.90;;;;;;4970047;28;20055;-85
2023/03/23 13:09:45;;;;;;;0.80;0.80;;;14.20;99.90;;;;;;4962544;28;20058;-86
2023/03/23 13:12:11;;;;;;;0.40;0.40;;;14.10;99.90;;;;;;4949228;28;20096;-85